sensor_id;sensor_type;location;lat;lon;timestamp;P1;durP1;ratioP1;P2;durP2;ratioP2
68910;SDS011;55953;51.650;-0.522;2023-04-15T00:02:19;7.40;;;4.20;;
68910;SDS011;55953;51.650;-0.522;2023-04-15T00:04:48;8.30;;;4.40;;
68910;SDS011;55953;51.650;-0.522;2023-04-15T00:07:16;6.90;;;4.00;;
68910;SDS011;55953;51.650;-0.522;2023-04-15T00:09:44;6.60;;;4.10;;
68910;SDS011;55953;51.650;-0.522;2023-04-15T00:12:12;6.30;;;4.20;;
68910;SDS011;55953;51.650;-0.522;2023-04-15T00:14:40;5.60;;;3.70;;
68910;SDS011;55953;51.650;-0.522;2023-04-15T00:17:08;5.60;;;3.90;;
68910;SDS011;55953;51.650;-0.522;2023-04-15T00:19:36;6.00;;;4.00;;
68910;SDS011;55953;51.650;-0.522;2023-04-15T00:22:03;6.20;;;4.40;;
68910;SDS011;55953;51.650;-0.522;2023-04-15T00:24:32;6.20;;;4.40;;
68910;SDS011;55953;51.650;-0.522;2023-04-15T00:27:00;6.60;;;4.10;;
68910;SDS011;55953;51.650;-0.522;2023-04-15T00:29:28;5.90;;;4.00;;
68910;SDS011;55953;51.650;-0.522;2023-04-15T00:31:57;5.50;;;3.30;;
68910;SDS011;55953;51.650;-0.522;2023-04-15T00:34:26;4.80;;;3.10;;
68910;SDS011;55953;51.650;-0.522;2023-04-15T00:36:54;5.20;;;3.50;;
68910;SDS011;55953;51.650;-0.522;2023-04-15T00:39:22;5.50;;;3.40;;
68910;SDS011;55953;51.650;-0.522;2023-04-15T00:41:50;5.90;;;3.70;;
68910;SDS011;55953;51.650;-0.522;2023-04-15T00:44:18;6.20;;;3.40;;
68910;SDS011;55953;51.650;-0.522;2023-04-15T00:46:47;5.60;;;3.10;;
68910;SDS011;55953;51.650;-0.522;2023-04-15T00:49:17;4.40;;;3.10;;
68910;SDS011;55953;51.650;-0.522;2023-04-15T00:51:45;6.40;;;3.20;;
68910;SDS011;55953;51.650;-0.522;2023-04-15T00:54:13;5.50;;;3.50;;
68910;SDS011;55953;51.650;-0.522;2023-04-15T00:56:43;5.00;;;3.10;;
68910;SDS011;55953;51.650;-0.522;2023-04-15T00:59:11;6.80;;;3.70;;
68910;SDS011;55953;51.650;-0.522;2023-04-15T01:01:42;4.00;;;2.90;;
68910;SDS011;55953;51.650;-0.522;2023-04-15T01:04:11;7.00;;;3.50;;
68910;SDS011;55953;51.650;-0.522;2023-04-15T01:06:39;4.90;;;3.70;;
68910;SDS011;55953;51.650;-0.522;2023-04-15T01:09:07;6.70;;;3.50;;
68910;SDS011;55953;51.650;-0.522;2023-04-15T01:11:35;4.60;;;3.20;;
68910;SDS011;55953;51.650;-0.522;2023-04-15T01:14:03;4.90;;;3.50;;
68910;SDS011;55953;51.650;-0.522;2023-04-15T01:16:31;5.10;;;3.50;;
68910;SDS011;55953;51.650;-0.522;2023-04-15T01:18:59;4.50;;;2.80;;
68910;SDS011;55953;51.650;-0.522;2023-04-15T01:21:27;4.50;;;3.00;;
68910;SDS011;55953;51.650;-0.522;2023-04-15T01:23:56;4.50;;;3.00;;
68910;SDS011;55953;51.650;-0.522;2023-04-15T01:26:25;3.80;;;3.10;;
68910;SDS011;55953;51.650;-0.522;2023-04-15T01:28:53;5.60;;;3.20;;
68910;SDS011;55953;51.650;-0.522;2023-04-15T01:31:23;4.60;;;3.00;;
68910;SDS011;55953;51.650;-0.522;2023-04-15T01:33:51;3.60;;;2.30;;
68910;SDS011;55953;51.650;-0.522;2023-04-15T01:36:19;3.80;;;2.70;;
68910;SDS011;55953;51.650;-0.522;2023-04-15T01:38:47;4.60;;;2.80;;
68910;SDS011;55953;51.650;-0.522;2023-04-15T01:41:15;8.20;;;2.70;;
68910;SDS011;55953;51.650;-0.522;2023-04-15T01:43:44;3.50;;;2.50;;
68910;SDS011;55953;51.650;-0.522;2023-04-15T01:46:12;4.60;;;2.30;;
68910;SDS011;55953;51.650;-0.522;2023-04-15T01:48:40;4.40;;;2.50;;
68910;SDS011;55953;51.650;-0.522;2023-04-15T01:51:08;4.20;;;2.80;;
68910;SDS011;55953;51.650;-0.522;2023-04-15T01:53:36;4.60;;;2.70;;
68910;SDS011;55953;51.650;-0.522;2023-04-15T01:56:04;4.90;;;3.20;;
68910;SDS011;55953;51.650;-0.522;2023-04-15T01:58:33;4.30;;;2.80;;
68910;SDS011;55953;51.650;-0.522;2023-04-15T02:01:02;3.70;;;2.70;;
68910;SDS011;55953;51.650;-0.522;2023-04-15T02:03:31;4.90;;;2.80;;
68910;SDS011;55953;51.650;-0.522;2023-04-15T02:06:00;3.80;;;2.80;;
68910;SDS011;55953;51.650;-0.522;2023-04-15T02:08:28;3.80;;;2.50;;
68910;SDS011;55953;51.650;-0.522;2023-04-15T02:10:56;4.20;;;2.30;;
68910;SDS011;55953;51.650;-0.522;2023-04-15T02:13:25;3.60;;;2.00;;
68910;SDS011;55953;51.650;-0.522;2023-04-15T02:15:53;2.50;;;1.90;;
68910;SDS011;55953;51.650;-0.522;2023-04-15T02:18:22;2.90;;;1.90;;
68910;SDS011;55953;51.650;-0.522;2023-04-15T02:20:53;3.00;;;1.80;;
68910;SDS011;55953;51.650;-0.522;2023-04-15T02:23:20;4.20;;;2.10;;
68910;SDS011;55953;51.650;-0.522;2023-04-15T02:25:48;2.10;;;1.50;;
68910;SDS011;55953;51.650;-0.522;2023-04-15T02:28:20;3.70;;;1.60;;
68910;SDS011;55953;51.650;-0.522;2023-04-15T02:30:48;2.40;;;1.50;;
68910;SDS011;55953;51.650;-0.522;2023-04-15T02:33:20;2.70;;;1.40;;
68910;SDS011;55953;51.650;-0.522;2023-04-15T02:35:48;1.40;;;1.20;;
68910;SDS011;55953;51.650;-0.522;2023-04-15T02:38:16;2.20;;;1.50;;
68910;SDS011;55953;51.650;-0.522;2023-04-15T02:40:44;2.40;;;1.70;;
68910;SDS011;55953;51.650;-0.522;2023-04-15T02:43:13;2.90;;;1.60;;
68910;SDS011;55953;51.650;-0.522;2023-04-15T02:45:40;4.00;;;2.00;;
68910;SDS011;55953;51.650;-0.522;2023-04-15T02:48:10;2.50;;;1.90;;
68910;SDS011;55953;51.650;-0.522;2023-04-15T02:50:38;3.60;;;2.00;;
68910;SDS011;55953;51.650;-0.522;2023-04-15T02:53:08;4.10;;;2.30;;
68910;SDS011;55953;51.650;-0.522;2023-04-15T02:55:35;2.70;;;2.00;;
68910;SDS011;55953;51.650;-0.522;2023-04-15T02:58:03;2.90;;;2.10;;
68910;SDS011;55953;51.650;-0.522;2023-04-15T03:00:32;3.50;;;2.70;;
68910;SDS011;55953;51.650;-0.522;2023-04-15T03:03:03;3.90;;;2.10;;
68910;SDS011;55953;51.650;-0.522;2023-04-15T03:05:32;3.20;;;2.40;;
68910;SDS011;55953;51.650;-0.522;2023-04-15T03:08:01;3.90;;;2.50;;
68910;SDS011;55953;51.650;-0.522;2023-04-15T03:10:29;4.20;;;2.90;;
68910;SDS011;55953;51.650;-0.522;2023-04-15T03:12:57;4.10;;;2.60;;
68910;SDS011;55953;51.650;-0.522;2023-04-15T03:15:25;3.30;;;2.60;;
68910;SDS011;55953;51.650;-0.522;2023-04-15T03:17:53;3.80;;;2.50;;
68910;SDS011;55953;51.650;-0.522;2023-04-15T03:20:22;4.10;;;3.00;;
68910;SDS011;55953;51.650;-0.522;2023-04-15T03:22:50;4.50;;;2.80;;
68910;SDS011;55953;51.650;-0.522;2023-04-15T03:25:19;3.90;;;2.80;;
68910;SDS011;55953;51.650;-0.522;2023-04-15T03:27:46;4.00;;;2.90;;
68910;SDS011;55953;51.650;-0.522;2023-04-15T03:30:14;5.50;;;3.30;;
68910;SDS011;55953;51.650;-0.522;2023-04-15T03:32:42;4.80;;;3.20;;
68910;SDS011;55953;51.650;-0.522;2023-04-15T03:35:10;7.10;;;3.40;;
68910;SDS011;55953;51.650;-0.522;2023-04-15T03:37:38;5.90;;;3.80;;
68910;SDS011;55953;51.650;-0.522;2023-04-15T03:40:07;5.80;;;4.00;;
68910;SDS011;55953;51.650;-0.522;2023-04-15T03:42:36;5.50;;;3.70;;
68910;SDS011;55953;51.650;-0.522;2023-04-15T03:45:04;4.90;;;4.00;;
68910;SDS011;55953;51.650;-0.522;2023-04-15T03:47:32;5.30;;;3.90;;
68910;SDS011;55953;51.650;-0.522;2023-04-15T03:50:00;5.60;;;4.30;;
68910;SDS011;55953;51.650;-0.522;2023-04-15T03:52:28;6.20;;;4.80;;
68910;SDS011;55953;51.650;-0.522;2023-04-15T03:54:56;6.90;;;4.80;;
68910;SDS011;55953;51.650;-0.522;2023-04-15T03:57:24;6.70;;;5.00;;
68910;SDS011;55953;51.650;-0.522;2023-04-15T03:59:52;6.50;;;5.40;;
68910;SDS011;55953;51.650;-0.522;2023-04-15T04:02:20;7.80;;;5.00;;
68910;SDS011;55953;51.650;-0.522;2023-04-15T04:04:48;8.50;;;5.10;;
68910;SDS011;55953;51.650;-0.522;2023-04-15T04:07:16;6.40;;;4.90;;
68910;SDS011;55953;51.650;-0.522;2023-04-15T04:09:44;6.50;;;5.20;;
68910;SDS011;55953;51.650;-0.522;2023-04-15T04:12:14;7.70;;;4.80;;
68910;SDS011;55953;51.650;-0.522;2023-04-15T04:14:42;6.00;;;4.60;;
68910;SDS011;55953;51.650;-0.522;2023-04-15T04:17:09;7.00;;;4.40;;
68910;SDS011;55953;51.650;-0.522;2023-04-15T04:19:38;5.80;;;4.70;;
68910;SDS011;55953;51.650;-0.522;2023-04-15T04:22:06;6.30;;;4.50;;
68910;SDS011;55953;51.650;-0.522;2023-04-15T04:24:34;7.10;;;4.90;;
68910;SDS011;55953;51.650;-0.522;2023-04-15T04:27:01;7.00;;;4.60;;
68910;SDS011;55953;51.650;-0.522;2023-04-15T04:29:29;7.30;;;4.80;;
68910;SDS011;55953;51.650;-0.522;2023-04-15T04:31:57;8.10;;;5.00;;
68910;SDS011;55953;51.650;-0.522;2023-04-15T04:34:25;7.60;;;4.80;;
68910;SDS011;55953;51.650;-0.522;2023-04-15T04:36:53;5.50;;;4.00;;
68910;SDS011;55953;51.650;-0.522;2023-04-15T04:39:21;7.40;;;4.80;;
68910;SDS011;55953;51.650;-0.522;2023-04-15T04:41:49;7.40;;;4.60;;
68910;SDS011;55953;51.650;-0.522;2023-04-15T04:44:18;6.20;;;5.10;;
68910;SDS011;55953;51.650;-0.522;2023-04-15T04:46:46;6.90;;;5.00;;
68910;SDS011;55953;51.650;-0.522;2023-04-15T04:49:14;7.20;;;4.80;;
68910;SDS011;55953;51.650;-0.522;2023-04-15T04:51:42;7.20;;;4.80;;
68910;SDS011;55953;51.650;-0.522;2023-04-15T04:54:10;9.30;;;4.80;;
68910;SDS011;55953;51.650;-0.522;2023-04-15T04:56:38;6.10;;;4.40;;
68910;SDS011;55953;51.650;-0.522;2023-04-15T04:59:06;7.30;;;4.50;;
68910;SDS011;55953;51.650;-0.522;2023-04-15T05:01:34;6.50;;;4.10;;
68910;SDS011;55953;51.650;-0.522;2023-04-15T05:04:02;6.90;;;4.70;;
68910;SDS011;55953;51.650;-0.522;2023-04-15T05:06:32;6.40;;;4.00;;
68910;SDS011;55953;51.650;-0.522;2023-04-15T05:09:00;6.30;;;4.70;;
68910;SDS011;55953;51.650;-0.522;2023-04-15T05:11:28;7.20;;;4.80;;
68910;SDS011;55953;51.650;-0.522;2023-04-15T05:13:56;6.40;;;4.50;;
68910;SDS011;55953;51.650;-0.522;2023-04-15T05:16:26;6.70;;;4.30;;
68910;SDS011;55953;51.650;-0.522;2023-04-15T05:18:53;6.30;;;4.50;;
68910;SDS011;55953;51.650;-0.522;2023-04-15T05:21:22;6.60;;;4.80;;
68910;SDS011;55953;51.650;-0.522;2023-04-15T05:23:50;6.60;;;4.30;;
68910;SDS011;55953;51.650;-0.522;2023-04-15T05:26:17;7.20;;;4.20;;
68910;SDS011;55953;51.650;-0.522;2023-04-15T05:28:45;6.20;;;4.40;;
68910;SDS011;55953;51.650;-0.522;2023-04-15T05:31:14;4.90;;;3.60;;
68910;SDS011;55953;51.650;-0.522;2023-04-15T05:33:42;6.30;;;3.70;;
68910;SDS011;55953;51.650;-0.522;2023-04-15T05:36:10;5.40;;;3.90;;
68910;SDS011;55953;51.650;-0.522;2023-04-15T05:38:38;7.70;;;3.90;;
68910;SDS011;55953;51.650;-0.522;2023-04-15T05:41:06;5.80;;;3.90;;
68910;SDS011;55953;51.650;-0.522;2023-04-15T05:43:34;6.10;;;3.90;;
68910;SDS011;55953;51.650;-0.522;2023-04-15T05:46:01;5.40;;;3.80;;
68910;SDS011;55953;51.650;-0.522;2023-04-15T05:48:29;4.50;;;3.30;;
68910;SDS011;55953;51.650;-0.522;2023-04-15T05:50:57;6.00;;;3.70;;
68910;SDS011;55953;51.650;-0.522;2023-04-15T05:53:25;5.00;;;3.90;;
68910;SDS011;55953;51.650;-0.522;2023-04-15T05:55:53;4.50;;;3.60;;
68910;SDS011;55953;51.650;-0.522;2023-04-15T05:58:21;5.60;;;3.60;;
68910;SDS011;55953;51.650;-0.522;2023-04-15T06:00:49;5.50;;;3.80;;
68910;SDS011;55953;51.650;-0.522;2023-04-15T06:03:17;5.70;;;3.90;;
68910;SDS011;55953;51.650;-0.522;2023-04-15T06:05:45;5.00;;;3.50;;
68910;SDS011;55953;51.650;-0.522;2023-04-15T06:08:13;6.50;;;3.60;;
68910;SDS011;55953;51.650;-0.522;2023-04-15T06:10:40;7.80;;;4.40;;
68910;SDS011;55953;51.650;-0.522;2023-04-15T06:13:08;5.90;;;3.70;;
68910;SDS011;55953;51.650;-0.522;2023-04-15T06:15:36;5.00;;;3.30;;
68910;SDS011;55953;51.650;-0.522;2023-04-15T06:18:04;5.00;;;3.20;;
68910;SDS011;55953;51.650;-0.522;2023-04-15T06:20:32;5.90;;;3.60;;
68910;SDS011;55953;51.650;-0.522;2023-04-15T06:22:59;6.20;;;4.20;;
68910;SDS011;55953;51.650;-0.522;2023-04-15T06:25:27;4.20;;;3.30;;
68910;SDS011;55953;51.650;-0.522;2023-04-15T06:27:55;6.30;;;3.70;;
68910;SDS011;55953;51.650;-0.522;2023-04-15T06:30:23;6.50;;;3.50;;
68910;SDS011;55953;51.650;-0.522;2023-04-15T06:32:51;5.90;;;3.60;;
68910;SDS011;55953;51.650;-0.522;2023-04-15T06:35:20;6.50;;;3.60;;
68910;SDS011;55953;51.650;-0.522;2023-04-15T06:37:48;6.10;;;3.60;;
68910;SDS011;55953;51.650;-0.522;2023-04-15T06:40:16;4.60;;;3.50;;
68910;SDS011;55953;51.650;-0.522;2023-04-15T06:42:44;7.20;;;4.10;;
68910;SDS011;55953;51.650;-0.522;2023-04-15T06:45:12;5.20;;;3.70;;
68910;SDS011;55953;51.650;-0.522;2023-04-15T06:47:40;5.50;;;3.70;;
68910;SDS011;55953;51.650;-0.522;2023-04-15T06:50:09;5.70;;;3.60;;
68910;SDS011;55953;51.650;-0.522;2023-04-15T06:52:37;5.90;;;3.70;;
68910;SDS011;55953;51.650;-0.522;2023-04-15T06:55:05;7.30;;;4.60;;
68910;SDS011;55953;51.650;-0.522;2023-04-15T06:57:34;6.50;;;4.00;;
68910;SDS011;55953;51.650;-0.522;2023-04-15T07:00:03;7.00;;;4.00;;
68910;SDS011;55953;51.650;-0.522;2023-04-15T07:02:32;7.30;;;4.20;;
68910;SDS011;55953;51.650;-0.522;2023-04-15T07:05:01;5.00;;;3.80;;
68910;SDS011;55953;51.650;-0.522;2023-04-15T07:07:29;6.20;;;3.80;;
68910;SDS011;55953;51.650;-0.522;2023-04-15T07:09:57;8.00;;;4.60;;
68910;SDS011;55953;51.650;-0.522;2023-04-15T07:12:25;6.10;;;4.20;;
68910;SDS011;55953;51.650;-0.522;2023-04-15T07:14:52;6.70;;;4.20;;
68910;SDS011;55953;51.650;-0.522;2023-04-15T07:17:20;7.20;;;4.30;;
68910;SDS011;55953;51.650;-0.522;2023-04-15T07:19:48;5.90;;;3.90;;
68910;SDS011;55953;51.650;-0.522;2023-04-15T07:22:16;6.10;;;3.80;;
68910;SDS011;55953;51.650;-0.522;2023-04-15T07:24:45;7.60;;;4.50;;
68910;SDS011;55953;51.650;-0.522;2023-04-15T07:27:13;7.30;;;4.30;;
68910;SDS011;55953;51.650;-0.522;2023-04-15T07:29:40;6.40;;;3.90;;
68910;SDS011;55953;51.650;-0.522;2023-04-15T07:32:08;5.10;;;3.60;;
68910;SDS011;55953;51.650;-0.522;2023-04-15T07:34:37;7.30;;;4.00;;
68910;SDS011;55953;51.650;-0.522;2023-04-15T07:37:05;5.30;;;3.90;;
68910;SDS011;55953;51.650;-0.522;2023-04-15T07:39:32;5.60;;;3.90;;
68910;SDS011;55953;51.650;-0.522;2023-04-15T07:42:00;6.50;;;3.90;;
68910;SDS011;55953;51.650;-0.522;2023-04-15T07:44:29;6.70;;;4.20;;
68910;SDS011;55953;51.650;-0.522;2023-04-15T07:46:56;5.90;;;3.80;;
68910;SDS011;55953;51.650;-0.522;2023-04-15T07:49:24;5.60;;;3.60;;
68910;SDS011;55953;51.650;-0.522;2023-04-15T07:51:52;6.50;;;3.90;;
68910;SDS011;55953;51.650;-0.522;2023-04-15T07:54:20;8.00;;;4.20;;
68910;SDS011;55953;51.650;-0.522;2023-04-15T07:56:48;5.70;;;3.60;;
68910;SDS011;55953;51.650;-0.522;2023-04-15T07:59:16;5.50;;;4.00;;
68910;SDS011;55953;51.650;-0.522;2023-04-15T08:01:44;5.60;;;3.50;;
68910;SDS011;55953;51.650;-0.522;2023-04-15T08:04:12;7.30;;;4.10;;
68910;SDS011;55953;51.650;-0.522;2023-04-15T08:06:42;8.40;;;3.90;;
68910;SDS011;55953;51.650;-0.522;2023-04-15T08:09:10;6.20;;;4.10;;
68910;SDS011;55953;51.650;-0.522;2023-04-15T08:11:38;7.50;;;4.20;;
68910;SDS011;55953;51.650;-0.522;2023-04-15T08:14:06;7.10;;;4.60;;
68910;SDS011;55953;51.650;-0.522;2023-04-15T08:16:34;8.70;;;4.50;;
68910;SDS011;55953;51.650;-0.522;2023-04-15T08:19:02;8.00;;;4.70;;
68910;SDS011;55953;51.650;-0.522;2023-04-15T08:21:30;5.70;;;4.40;;
68910;SDS011;55953;51.650;-0.522;2023-04-15T08:23:58;6.40;;;4.70;;
68910;SDS011;55953;51.650;-0.522;2023-04-15T08:26:26;7.40;;;4.50;;
68910;SDS011;55953;51.650;-0.522;2023-04-15T08:28:54;6.40;;;4.40;;
68910;SDS011;55953;51.650;-0.522;2023-04-15T08:31:25;5.30;;;4.10;;
68910;SDS011;55953;51.650;-0.522;2023-04-15T08:33:53;6.30;;;4.50;;
68910;SDS011;55953;51.650;-0.522;2023-04-15T08:36:23;8.10;;;4.60;;
68910;SDS011;55953;51.650;-0.522;2023-04-15T08:38:51;5.80;;;4.10;;
68910;SDS011;55953;51.650;-0.522;2023-04-15T08:41:24;8.80;;;4.40;;
68910;SDS011;55953;51.650;-0.522;2023-04-15T08:43:56;6.70;;;4.40;;
68910;SDS011;55953;51.650;-0.522;2023-04-15T08:46:30;5.70;;;3.90;;
68910;SDS011;55953;51.650;-0.522;2023-04-15T08:49:03;7.10;;;4.20;;
68910;SDS011;55953;51.650;-0.522;2023-04-15T08:51:31;7.60;;;4.30;;
68910;SDS011;55953;51.650;-0.522;2023-04-15T08:54:01;6.30;;;4.10;;
68910;SDS011;55953;51.650;-0.522;2023-04-15T08:56:30;6.20;;;4.20;;
68910;SDS011;55953;51.650;-0.522;2023-04-15T08:59:00;5.50;;;3.30;;
68910;SDS011;55953;51.650;-0.522;2023-04-15T09:01:28;6.60;;;3.80;;
68910;SDS011;55953;51.650;-0.522;2023-04-15T09:03:58;5.90;;;3.60;;
68910;SDS011;55953;51.650;-0.522;2023-04-15T09:06:26;4.70;;;3.20;;
68910;SDS011;55953;51.650;-0.522;2023-04-15T09:08:54;7.10;;;3.50;;
68910;SDS011;55953;51.650;-0.522;2023-04-15T09:11:22;4.10;;;3.10;;
68910;SDS011;55953;51.650;-0.522;2023-04-15T09:13:50;6.30;;;3.40;;
68910;SDS011;55953;51.650;-0.522;2023-04-15T09:16:18;5.90;;;3.80;;
68910;SDS011;55953;51.650;-0.522;2023-04-15T09:18:46;6.90;;;3.70;;
68910;SDS011;55953;51.650;-0.522;2023-04-15T09:21:16;5.10;;;3.50;;
68910;SDS011;55953;51.650;-0.522;2023-04-15T09:23:58;5.40;;;3.20;;
68910;SDS011;55953;51.650;-0.522;2023-04-15T09:26:30;5.40;;;3.90;;
68910;SDS011;55953;51.650;-0.522;2023-04-15T09:29:08;8.50;;;4.00;;
68910;SDS011;55953;51.650;-0.522;2023-04-15T09:31:40;5.50;;;3.50;;
68910;SDS011;55953;51.650;-0.522;2023-04-15T09:34:09;5.80;;;3.50;;
68910;SDS011;55953;51.650;-0.522;2023-04-15T09:36:56;4.80;;;3.40;;
68910;SDS011;55953;51.650;-0.522;2023-04-15T09:39:24;5.30;;;3.40;;
68910;SDS011;55953;51.650;-0.522;2023-04-15T09:42:07;4.70;;;3.30;;
68910;SDS011;55953;51.650;-0.522;2023-04-15T09:44:35;4.70;;;3.10;;
68910;SDS011;55953;51.650;-0.522;2023-04-15T09:47:04;4.60;;;2.80;;
68910;SDS011;55953;51.650;-0.522;2023-04-15T09:49:32;4.50;;;3.00;;
68910;SDS011;55953;51.650;-0.522;2023-04-15T09:52:01;5.40;;;2.80;;
68910;SDS011;55953;51.650;-0.522;2023-04-15T09:54:35;4.20;;;2.70;;
68910;SDS011;55953;51.650;-0.522;2023-04-15T09:57:05;4.80;;;2.90;;
68910;SDS011;55953;51.650;-0.522;2023-04-15T09:59:37;4.20;;;2.70;;
68910;SDS011;55953;51.650;-0.522;2023-04-15T10:02:05;4.40;;;2.70;;
68910;SDS011;55953;51.650;-0.522;2023-04-15T10:04:39;4.10;;;2.50;;
68910;SDS011;55953;51.650;-0.522;2023-04-15T10:07:09;5.80;;;3.10;;
68910;SDS011;55953;51.650;-0.522;2023-04-15T10:09:39;4.30;;;3.30;;
68910;SDS011;55953;51.650;-0.522;2023-04-15T10:12:07;4.10;;;3.00;;
68910;SDS011;55953;51.650;-0.522;2023-04-15T10:14:36;6.30;;;3.50;;
68910;SDS011;55953;51.650;-0.522;2023-04-15T10:17:06;4.70;;;3.00;;
68910;SDS011;55953;51.650;-0.522;2023-04-15T10:19:36;4.90;;;3.10;;
68910;SDS011;55953;51.650;-0.522;2023-04-15T10:22:05;4.40;;;3.30;;
68910;SDS011;55953;51.650;-0.522;2023-04-15T10:24:34;5.00;;;3.10;;
68910;SDS011;55953;51.650;-0.522;2023-04-15T10:27:04;4.20;;;3.10;;
68910;SDS011;55953;51.650;-0.522;2023-04-15T10:29:33;5.90;;;3.90;;
68910;SDS011;55953;51.650;-0.522;2023-04-15T10:32:01;5.80;;;3.30;;
68910;SDS011;55953;51.650;-0.522;2023-04-15T10:34:30;5.10;;;3.10;;
68910;SDS011;55953;51.650;-0.522;2023-04-15T10:37:04;6.70;;;3.90;;
68910;SDS011;55953;51.650;-0.522;2023-04-15T10:44:50;6.60;;;3.60;;
68910;SDS011;55953;51.650;-0.522;2023-04-15T10:47:22;5.60;;;3.40;;
68910;SDS011;55953;51.650;-0.522;2023-04-15T10:49:56;5.40;;;3.60;;
68910;SDS011;55953;51.650;-0.522;2023-04-15T10:52:27;5.60;;;3.40;;
68910;SDS011;55953;51.650;-0.522;2023-04-15T10:55:21;7.90;;;4.40;;
68910;SDS011;55953;51.650;-0.522;2023-04-15T10:57:57;7.20;;;4.00;;
68910;SDS011;55953;51.650;-0.522;2023-04-15T11:00:29;13.50;;;6.40;;
68910;SDS011;55953;51.650;-0.522;2023-04-15T11:03:05;10.80;;;5.70;;
68910;SDS011;55953;51.650;-0.522;2023-04-15T11:08:06;11.90;;;5.00;;
68910;SDS011;55953;51.650;-0.522;2023-04-15T11:15:38;6.50;;;3.80;;
68910;SDS011;55953;51.650;-0.522;2023-04-15T11:20:53;7.60;;;4.90;;
68910;SDS011;55953;51.650;-0.522;2023-04-15T11:26:17;9.00;;;6.20;;
68910;SDS011;55953;51.650;-0.522;2023-04-15T11:28:45;8.70;;;5.70;;
68910;SDS011;55953;51.650;-0.522;2023-04-15T11:31:16;6.50;;;4.90;;
68910;SDS011;55953;51.650;-0.522;2023-04-15T11:34:04;8.40;;;5.30;;
68910;SDS011;55953;51.650;-0.522;2023-04-15T11:36:32;6.70;;;5.10;;
68910;SDS011;55953;51.650;-0.522;2023-04-15T11:39:00;6.80;;;4.60;;
68910;SDS011;55953;51.650;-0.522;2023-04-15T11:41:28;6.80;;;3.80;;
68910;SDS011;55953;51.650;-0.522;2023-04-15T11:43:56;7.30;;;4.10;;
68910;SDS011;55953;51.650;-0.522;2023-04-15T11:46:29;5.10;;;3.70;;
68910;SDS011;55953;51.650;-0.522;2023-04-15T11:48:58;6.00;;;3.70;;
68910;SDS011;55953;51.650;-0.522;2023-04-15T11:51:31;6.50;;;3.30;;
68910;SDS011;55953;51.650;-0.522;2023-04-15T11:54:00;6.50;;;3.50;;
68910;SDS011;55953;51.650;-0.522;2023-04-15T11:56:29;4.70;;;3.60;;
68910;SDS011;55953;51.650;-0.522;2023-04-15T11:58:58;6.70;;;4.10;;
68910;SDS011;55953;51.650;-0.522;2023-04-15T12:01:40;6.10;;;3.80;;
68910;SDS011;55953;51.650;-0.522;2023-04-15T12:04:16;5.80;;;3.70;;
68910;SDS011;55953;51.650;-0.522;2023-04-15T12:06:52;4.90;;;3.10;;
68910;SDS011;55953;51.650;-0.522;2023-04-15T12:09:20;5.60;;;3.00;;
68910;SDS011;55953;51.650;-0.522;2023-04-15T12:11:49;5.50;;;3.60;;
68910;SDS011;55953;51.650;-0.522;2023-04-15T12:14:27;5.40;;;3.50;;
68910;SDS011;55953;51.650;-0.522;2023-04-15T12:17:03;4.60;;;3.40;;
68910;SDS011;55953;51.650;-0.522;2023-04-15T12:19:40;7.10;;;3.70;;
68910;SDS011;55953;51.650;-0.522;2023-04-15T12:22:14;8.00;;;4.10;;
68910;SDS011;55953;51.650;-0.522;2023-04-15T12:24:43;6.80;;;3.80;;
68910;SDS011;55953;51.650;-0.522;2023-04-15T12:27:15;8.60;;;4.20;;
68910;SDS011;55953;51.650;-0.522;2023-04-15T12:29:44;6.00;;;3.50;;
68910;SDS011;55953;51.650;-0.522;2023-04-15T12:34:43;7.10;;;4.00;;
68910;SDS011;55953;51.650;-0.522;2023-04-15T12:37:16;8.80;;;4.00;;
68910;SDS011;55953;51.650;-0.522;2023-04-15T12:39:47;8.30;;;4.60;;
68910;SDS011;55953;51.650;-0.522;2023-04-15T12:42:16;8.30;;;4.10;;
68910;SDS011;55953;51.650;-0.522;2023-04-15T12:44:45;6.10;;;4.00;;
68910;SDS011;55953;51.650;-0.522;2023-04-15T12:47:13;6.20;;;4.30;;
68910;SDS011;55953;51.650;-0.522;2023-04-15T12:49:42;7.30;;;4.30;;
68910;SDS011;55953;51.650;-0.522;2023-04-15T12:52:09;8.80;;;4.30;;
68910;SDS011;55953;51.650;-0.522;2023-04-15T12:54:38;6.60;;;3.70;;
68910;SDS011;55953;51.650;-0.522;2023-04-15T12:57:06;7.10;;;4.60;;
68910;SDS011;55953;51.650;-0.522;2023-04-15T12:59:34;6.10;;;3.90;;
68910;SDS011;55953;51.650;-0.522;2023-04-15T13:02:03;7.80;;;4.10;;
68910;SDS011;55953;51.650;-0.522;2023-04-15T13:04:31;7.70;;;4.10;;
68910;SDS011;55953;51.650;-0.522;2023-04-15T13:07:00;7.60;;;4.20;;
68910;SDS011;55953;51.650;-0.522;2023-04-15T13:09:28;6.80;;;4.30;;
68910;SDS011;55953;51.650;-0.522;2023-04-15T13:11:57;6.00;;;4.40;;
68910;SDS011;55953;51.650;-0.522;2023-04-15T13:14:25;7.30;;;3.60;;
68910;SDS011;55953;51.650;-0.522;2023-04-15T13:16:53;6.50;;;3.90;;
68910;SDS011;55953;51.650;-0.522;2023-04-15T13:19:21;6.50;;;4.20;;
68910;SDS011;55953;51.650;-0.522;2023-04-15T13:21:49;7.50;;;4.30;;
68910;SDS011;55953;51.650;-0.522;2023-04-15T13:24:17;6.00;;;3.60;;
68910;SDS011;55953;51.650;-0.522;2023-04-15T13:26:46;6.10;;;3.50;;
68910;SDS011;55953;51.650;-0.522;2023-04-15T13:29:16;6.60;;;3.90;;
68910;SDS011;55953;51.650;-0.522;2023-04-15T13:31:44;6.60;;;3.90;;
68910;SDS011;55953;51.650;-0.522;2023-04-15T13:34:12;5.60;;;3.60;;
68910;SDS011;55953;51.650;-0.522;2023-04-15T13:36:40;5.40;;;4.10;;
68910;SDS011;55953;51.650;-0.522;2023-04-15T13:39:08;7.60;;;3.90;;
68910;SDS011;55953;51.650;-0.522;2023-04-15T13:41:36;6.80;;;3.80;;
68910;SDS011;55953;51.650;-0.522;2023-04-15T13:44:04;4.90;;;3.60;;
68910;SDS011;55953;51.650;-0.522;2023-04-15T13:46:33;6.40;;;4.10;;
68910;SDS011;55953;51.650;-0.522;2023-04-15T13:49:01;8.30;;;3.80;;
68910;SDS011;55953;51.650;-0.522;2023-04-15T13:51:28;5.10;;;3.30;;
68910;SDS011;55953;51.650;-0.522;2023-04-15T13:53:57;6.20;;;3.60;;
68910;SDS011;55953;51.650;-0.522;2023-04-15T13:56:25;6.40;;;3.30;;
68910;SDS011;55953;51.650;-0.522;2023-04-15T13:58:53;7.10;;;3.80;;
68910;SDS011;55953;51.650;-0.522;2023-04-15T14:01:25;5.90;;;3.80;;
68910;SDS011;55953;51.650;-0.522;2023-04-15T14:03:54;7.50;;;3.90;;
68910;SDS011;55953;51.650;-0.522;2023-04-15T14:06:23;6.70;;;3.30;;
68910;SDS011;55953;51.650;-0.522;2023-04-15T14:08:51;6.50;;;3.40;;
68910;SDS011;55953;51.650;-0.522;2023-04-15T14:11:19;5.40;;;3.80;;
68910;SDS011;55953;51.650;-0.522;2023-04-15T14:13:47;5.30;;;3.70;;
68910;SDS011;55953;51.650;-0.522;2023-04-15T14:16:15;7.40;;;3.40;;
68910;SDS011;55953;51.650;-0.522;2023-04-15T14:18:43;6.90;;;4.10;;
68910;SDS011;55953;51.650;-0.522;2023-04-15T14:21:11;5.90;;;3.30;;
68910;SDS011;55953;51.650;-0.522;2023-04-15T14:23:39;5.30;;;3.30;;
68910;SDS011;55953;51.650;-0.522;2023-04-15T14:26:07;8.50;;;4.10;;
68910;SDS011;55953;51.650;-0.522;2023-04-15T14:28:35;7.00;;;3.20;;
68910;SDS011;55953;51.650;-0.522;2023-04-15T14:31:05;4.80;;;3.40;;
68910;SDS011;55953;51.650;-0.522;2023-04-15T14:33:33;6.30;;;3.30;;
68910;SDS011;55953;51.650;-0.522;2023-04-15T14:36:00;5.70;;;3.50;;
68910;SDS011;55953;51.650;-0.522;2023-04-15T14:38:28;7.10;;;4.00;;
68910;SDS011;55953;51.650;-0.522;2023-04-15T14:40:56;6.00;;;3.60;;
68910;SDS011;55953;51.650;-0.522;2023-04-15T14:43:24;5.90;;;3.30;;
68910;SDS011;55953;51.650;-0.522;2023-04-15T14:45:52;7.10;;;3.80;;
68910;SDS011;55953;51.650;-0.522;2023-04-15T14:48:20;7.80;;;3.70;;
68910;SDS011;55953;51.650;-0.522;2023-04-15T14:50:48;6.00;;;4.00;;
68910;SDS011;55953;51.650;-0.522;2023-04-15T14:53:16;4.70;;;3.30;;
68910;SDS011;55953;51.650;-0.522;2023-04-15T14:55:44;6.00;;;3.40;;
68910;SDS011;55953;51.650;-0.522;2023-04-15T14:58:12;6.00;;;3.30;;
68910;SDS011;55953;51.650;-0.522;2023-04-15T15:00:40;6.30;;;3.80;;
68910;SDS011;55953;51.650;-0.522;2023-04-15T15:03:11;6.80;;;3.10;;
68910;SDS011;55953;51.650;-0.522;2023-04-15T15:05:41;7.30;;;3.70;;